KDUC/DUC METAR and TAF weather

Enter ICAO airport designator
Station Type Date Time Source
KDUC METAR 2019/12/14 06:15 UTC NOAA

KDUC 140615Z AUTO 31006KT 10SM CLR 04/02 A2991 RMK AO2 T00390017


Station Type Date Time Source
KDUC Decoded METAR 2019/12/14 06:15 UTC NOAA

Duncan, Halliburton Field Airport, OK, United States (KDUC) 34-28-15N 097-57-36W
Dec 14, 2019 - 01:15 AM EST / 2019.12.14 0615 UTC
Wind: from the NW (310 degrees) at 7 MPH (6 KT):0
Visibility: 10 mile(s):0
Sky conditions: clear
Temperature: 39.0 F (3.9 C)
Dew Point: 35.1 F (1.7 C)
Relative Humidity: 85%
Pressure (altimeter): 29.91 in. Hg (1012 hPa)
ob: KDUC 140615Z AUTO 31006KT 10SM CLR 04/02 A2991 RMK AO2 T00390017
cycle: 6

Station Type Date Time Source
KDUC TAF UTC NOAA

Error!

Example: see airport list